sensor_id;sensor_type;location;lat;lon;timestamp;pressure;altitude;pressure_sealevel;temperature;humidity
75051;BME280;63628;47.656;11.310;2023-02-10T00:00:45;96479.53;;;1.01;75.84
75051;BME280;63628;47.656;11.310;2023-02-10T00:03:12;96474.44;;;0.99;76.06
75051;BME280;63628;47.656;11.310;2023-02-10T00:05:38;96474.25;;;-0.88;68.36
75051;BME280;63628;47.656;11.310;2023-02-10T00:08:05;96464.06;;;0.78;76.82
75051;BME280;63628;47.656;11.310;2023-02-10T00:10:33;96468.25;;;0.90;76.08
75051;BME280;63628;47.656;11.310;2023-02-10T00:12:59;96474.16;;;0.92;76.05
75051;BME280;63628;47.656;11.310;2023-02-10T00:15:26;96463.47;;;0.95;76.21
75051;BME280;63628;47.656;11.310;2023-02-10T00:17:52;96468.81;;;0.94;76.23
75051;BME280;63628;47.656;11.310;2023-02-10T00:20:19;96474.81;;;0.85;73.20
75051;BME280;63628;47.656;11.310;2023-02-10T00:22:46;96477.28;;;0.86;76.03
75051;BME280;63628;47.656;11.310;2023-02-10T00:25:12;96474.41;;;0.89;76.28
75051;BME280;63628;47.656;11.310;2023-02-10T00:27:40;96471.53;;;0.92;75.72
75051;BME280;63628;47.656;11.310;2023-02-10T00:30:08;96463.16;;;0.89;75.94
75051;BME280;63628;47.656;11.310;2023-02-10T00:32:35;96453.56;;;0.89;75.95
75051;BME280;63628;47.656;11.310;2023-02-10T00:35:03;96461.38;;;0.89;76.23
75051;BME280;63628;47.656;11.310;2023-02-10T00:37:30;96465.06;;;0.87;75.82
75051;BME280;63628;47.656;11.310;2023-02-10T00:39:57;96472.19;;;0.85;76.07
75051;BME280;63628;47.656;11.310;2023-02-10T00:42:26;96469.59;;;0.85;76.12
75051;BME280;63628;47.656;11.310;2023-02-10T00:44:53;96483.94;;;-1.13;65.26
75051;BME280;63628;47.656;11.310;2023-02-10T00:47:21;96500.53;;;-3.92;69.04
75051;BME280;63628;47.656;11.310;2023-02-10T00:49:50;96489.84;;;-1.11;82.96
75051;BME280;63628;47.656;11.310;2023-02-10T00:52:16;96482.66;;;0.22;78.73
75051;BME280;63628;47.656;11.310;2023-02-10T00:54:43;96483.91;;;-0.25;71.85
75051;BME280;63628;47.656;11.310;2023-02-10T00:57:09;96492.41;;;0.51;77.12
75051;BME280;63628;47.656;11.310;2023-02-10T00:59:36;96490.34;;;0.66;76.57
75051;BME280;63628;47.656;11.310;2023-02-10T01:02:04;96494.06;;;0.52;71.39
75051;BME280;63628;47.656;11.310;2023-02-10T01:04:31;96501.03;;;-1.90;74.60
75051;BME280;63628;47.656;11.310;2023-02-10T01:06:57;96490.41;;;0.34;77.33
75051;BME280;63628;47.656;11.310;2023-02-10T01:09:24;96493.00;;;0.13;68.64
75051;BME280;63628;47.656;11.310;2023-02-10T01:11:51;96502.00;;;0.50;76.53
75051;BME280;63628;47.656;11.310;2023-02-10T01:14:18;96497.56;;;0.62;76.18
75051;BME280;63628;47.656;11.310;2023-02-10T01:16:45;96514.34;;;-1.48;72.74
75051;BME280;63628;47.656;11.310;2023-02-10T01:19:12;96510.63;;;-1.22;66.82
75051;BME280;63628;47.656;11.310;2023-02-10T01:21:40;96512.69;;;0.26;77.44
75051;BME280;63628;47.656;11.310;2023-02-10T01:24:06;96508.06;;;0.51;76.66
75051;BME280;63628;47.656;11.310;2023-02-10T01:26:34;96505.88;;;0.56;76.48
75051;BME280;63628;47.656;11.310;2023-02-10T01:29:00;96509.06;;;0.59;76.56
75051;BME280;63628;47.656;11.310;2023-02-10T01:31:27;96511.78;;;0.58;76.19
75051;BME280;63628;47.656;11.310;2023-02-10T01:33:54;96518.91;;;0.56;76.44
75051;BME280;63628;47.656;11.310;2023-02-10T01:36:23;96525.75;;;0.57;76.09
75051;BME280;63628;47.656;11.310;2023-02-10T01:38:50;96512.88;;;0.55;76.14
75051;BME280;63628;47.656;11.310;2023-02-10T01:41:20;96520.44;;;0.58;75.74
75051;BME280;63628;47.656;11.310;2023-02-10T01:44:00;96520.69;;;0.55;76.04
75051;BME280;63628;47.656;11.310;2023-02-10T01:46:29;96530.84;;;0.58;75.76
75051;BME280;63628;47.656;11.310;2023-02-10T01:48:57;96537.25;;;0.54;75.71
75051;BME280;63628;47.656;11.310;2023-02-10T01:51:33;96533.84;;;0.54;76.20
75051;BME280;63628;47.656;11.310;2023-02-10T01:54:02;96535.63;;;0.53;76.14
75051;BME280;63628;47.656;11.310;2023-02-10T01:56:30;96538.22;;;0.53;76.30
75051;BME280;63628;47.656;11.310;2023-02-10T01:58:57;96543.22;;;-0.84;65.99
75051;BME280;63628;47.656;11.310;2023-02-10T02:01:24;96537.13;;;-0.29;79.05
75051;BME280;63628;47.656;11.310;2023-02-10T02:03:52;96540.88;;;0.42;76.67
75051;BME280;63628;47.656;11.310;2023-02-10T02:06:20;96544.09;;;-0.29;66.37
75051;BME280;63628;47.656;11.310;2023-02-10T02:08:50;96535.84;;;-0.03;77.93
75051;BME280;63628;47.656;11.310;2023-02-10T02:11:20;96543.88;;;0.38;76.18
75051;BME280;63628;47.656;11.310;2023-02-10T02:14:03;96549.09;;;-3.32;66.97
75051;BME280;63628;47.656;11.310;2023-02-10T02:16:41;96553.13;;;-0.67;80.25
75051;BME280;63628;47.656;11.310;2023-02-10T02:19:24;96545.63;;;0.16;77.13
75051;BME280;63628;47.656;11.310;2023-02-10T02:22:32;96552.19;;;0.31;76.72
75051;BME280;63628;47.656;11.310;2023-02-10T02:25:18;96548.25;;;0.37;76.12
75051;BME280;63628;47.656;11.310;2023-02-10T02:27:59;96554.53;;;0.35;75.93
75051;BME280;63628;47.656;11.310;2023-02-10T02:30:48;96551.66;;;-0.26;67.05
75051;BME280;63628;47.656;11.310;2023-02-10T02:33:26;96554.31;;;-0.06;77.75
75051;BME280;63628;47.656;11.310;2023-02-10T02:35:59;96548.34;;;0.15;76.98
75051;BME280;63628;47.656;11.310;2023-02-10T02:38:27;96549.94;;;0.27;76.41
75051;BME280;63628;47.656;11.310;2023-02-10T02:40:53;96557.13;;;0.35;75.46
75051;BME280;63628;47.656;11.310;2023-02-10T02:43:21;96558.34;;;0.30;76.05
75051;BME280;63628;47.656;11.310;2023-02-10T02:45:53;96552.31;;;0.30;76.26
75051;BME280;63628;47.656;11.310;2023-02-10T02:48:49;96555.72;;;0.30;75.94
75051;BME280;63628;47.656;11.310;2023-02-10T02:51:31;96560.13;;;0.30;76.24
75051;BME280;63628;47.656;11.310;2023-02-10T02:54:09;96575.31;;;-1.54;68.79
75051;BME280;63628;47.656;11.310;2023-02-10T02:56:41;96579.91;;;-0.33;77.33
75051;BME280;63628;47.656;11.310;2023-02-10T02:59:15;96574.53;;;0.02;74.82
75051;BME280;63628;47.656;11.310;2023-02-10T03:01:47;96570.69;;;0.17;76.05
75051;BME280;63628;47.656;11.310;2023-02-10T03:04:17;96573.84;;;0.00;71.13
75051;BME280;63628;47.656;11.310;2023-02-10T03:06:44;96576.97;;;-0.40;77.94
75051;BME280;63628;47.656;11.310;2023-02-10T03:09:12;96573.69;;;0.13;76.68
75051;BME280;63628;47.656;11.310;2023-02-10T03:11:38;96575.78;;;0.19;76.29
75051;BME280;63628;47.656;11.310;2023-02-10T03:14:05;96577.72;;;0.06;76.41
75051;BME280;63628;47.656;11.310;2023-02-10T03:16:32;96565.63;;;0.16;75.92
75051;BME280;63628;47.656;11.310;2023-02-10T03:18:58;96580.16;;;0.18;75.77
75051;BME280;63628;47.656;11.310;2023-02-10T03:21:26;96565.50;;;0.17;76.20
75051;BME280;63628;47.656;11.310;2023-02-10T03:23:53;96568.09;;;0.17;75.68
75051;BME280;63628;47.656;11.310;2023-02-10T03:26:19;96566.56;;;0.15;75.97
75051;BME280;63628;47.656;11.310;2023-02-10T03:28:46;96565.34;;;-0.13;75.38
75051;BME280;63628;47.656;11.310;2023-02-10T03:31:13;96573.81;;;0.11;75.93
75051;BME280;63628;47.656;11.310;2023-02-10T03:33:39;96570.25;;;0.12;75.65
75051;BME280;63628;47.656;11.310;2023-02-10T03:36:06;96570.13;;;0.14;75.73
75051;BME280;63628;47.656;11.310;2023-02-10T03:38:35;96571.91;;;0.13;76.11
75051;BME280;63628;47.656;11.310;2023-02-10T03:41:01;96583.78;;;-2.35;65.47
75051;BME280;63628;47.656;11.310;2023-02-10T03:43:28;96584.97;;;-2.64;80.14
75051;BME280;63628;47.656;11.310;2023-02-10T03:45:59;96579.81;;;-0.43;78.40
75051;BME280;63628;47.656;11.310;2023-02-10T03:48:26;96575.38;;;-0.09;77.04
75051;BME280;63628;47.656;11.310;2023-02-10T03:50:57;96576.66;;;-0.03;76.43
75051;BME280;63628;47.656;11.310;2023-02-10T03:53:25;96576.31;;;0.02;76.51
75051;BME280;63628;47.656;11.310;2023-02-10T03:55:53;96578.09;;;0.01;75.59
75051;BME280;63628;47.656;11.310;2023-02-10T03:58:19;96569.47;;;0.01;75.95
75051;BME280;63628;47.656;11.310;2023-02-10T04:00:46;96573.94;;;-0.02;75.76
75051;BME280;63628;47.656;11.310;2023-02-10T04:03:13;96573.84;;;0.00;76.04
75051;BME280;63628;47.656;11.310;2023-02-10T04:05:40;96580.78;;;-0.01;75.53
75051;BME280;63628;47.656;11.310;2023-02-10T04:08:07;96566.84;;;0.01;76.12
75051;BME280;63628;47.656;11.310;2023-02-10T04:10:34;96571.34;;;-0.02;76.32
75051;BME280;63628;47.656;11.310;2023-02-10T04:13:02;96574.06;;;-0.03;76.04
75051;BME280;63628;47.656;11.310;2023-02-10T04:15:29;96564.13;;;0.02;75.47
75051;BME280;63628;47.656;11.310;2023-02-10T04:17:55;96565.44;;;-0.04;76.17
75051;BME280;63628;47.656;11.310;2023-02-10T04:20:22;96561.03;;;-0.03;75.33
75051;BME280;63628;47.656;11.310;2023-02-10T04:22:49;96563.88;;;-0.06;76.09
75051;BME280;63628;47.656;11.310;2023-02-10T04:25:16;96561.28;;;-0.06;76.19
75051;BME280;63628;47.656;11.310;2023-02-10T04:27:43;96562.75;;;-0.24;74.52
75051;BME280;63628;47.656;11.310;2023-02-10T04:30:11;96571.03;;;-0.19;72.57
75051;BME280;63628;47.656;11.310;2023-02-10T04:32:38;96572.34;;;-2.19;74.29
75051;BME280;63628;47.656;11.310;2023-02-10T04:35:05;96571.31;;;-0.45;77.43
75051;BME280;63628;47.656;11.310;2023-02-10T04:37:32;96574.66;;;-1.34;69.79
75051;BME280;63628;47.656;11.310;2023-02-10T04:39:58;96570.03;;;-0.61;77.08
75051;BME280;63628;47.656;11.310;2023-02-10T04:42:25;96568.09;;;-0.26;76.10
75051;BME280;63628;47.656;11.310;2023-02-10T04:44:56;96575.19;;;-0.28;76.18
75051;BME280;63628;47.656;11.310;2023-02-10T04:47:25;96575.28;;;-0.18;76.29
75051;BME280;63628;47.656;11.310;2023-02-10T04:49:53;96573.63;;;-0.19;75.63
75051;BME280;63628;47.656;11.310;2023-02-10T04:52:20;96574.34;;;-0.17;76.24
75051;BME280;63628;47.656;11.310;2023-02-10T04:54:47;96568.19;;;-0.16;76.07
75051;BME280;63628;47.656;11.310;2023-02-10T04:57:13;96569.88;;;-0.38;75.83
75051;BME280;63628;47.656;11.310;2023-02-10T04:59:40;96571.38;;;-0.24;76.15
75051;BME280;63628;47.656;11.310;2023-02-10T05:02:06;96575.66;;;-0.23;76.48
75051;BME280;63628;47.656;11.310;2023-02-10T05:04:34;96585.81;;;-0.20;75.65
75051;BME280;63628;47.656;11.310;2023-02-10T05:07:01;96595.69;;;-3.45;67.45
75051;BME280;63628;47.656;11.310;2023-02-10T05:09:28;96595.19;;;-0.84;78.77
75051;BME280;63628;47.656;11.310;2023-02-10T05:11:55;96595.31;;;-0.41;76.56
75051;BME280;63628;47.656;11.310;2023-02-10T05:14:21;96597.19;;;-0.32;76.51
75051;BME280;63628;47.656;11.310;2023-02-10T05:16:48;96598.94;;;-0.33;75.71
75051;BME280;63628;47.656;11.310;2023-02-10T05:19:14;96601.56;;;-0.33;75.75
75051;BME280;63628;47.656;11.310;2023-02-10T05:21:42;96604.03;;;-0.31;75.91
75051;BME280;63628;47.656;11.310;2023-02-10T05:24:09;96594.56;;;-0.32;75.80
75051;BME280;63628;47.656;11.310;2023-02-10T05:26:35;96600.59;;;-0.32;75.90
75051;BME280;63628;47.656;11.310;2023-02-10T05:29:02;96595.28;;;-0.30;75.84
75051;BME280;63628;47.656;11.310;2023-02-10T05:31:29;96597.19;;;-0.32;75.90
75051;BME280;63628;47.656;11.310;2023-02-10T05:33:55;96598.94;;;-0.33;75.63
75051;BME280;63628;47.656;11.310;2023-02-10T05:36:22;96608.28;;;-0.30;75.49
75051;BME280;63628;47.656;11.310;2023-02-10T05:38:50;96608.41;;;-0.32;75.52
75051;BME280;63628;47.656;11.310;2023-02-10T05:41:35;96611.50;;;-0.38;75.51
75051;BME280;63628;47.656;11.310;2023-02-10T05:44:02;96620.00;;;-0.36;76.08
75051;BME280;63628;47.656;11.310;2023-02-10T05:46:29;96628.50;;;-0.34;75.71
75051;BME280;63628;47.656;11.310;2023-02-10T05:48:55;96633.00;;;-0.36;76.17
75051;BME280;63628;47.656;11.310;2023-02-10T05:51:22;96635.84;;;-0.39;75.93
75051;BME280;63628;47.656;11.310;2023-02-10T05:53:49;96645.41;;;-0.39;76.26
75051;BME280;63628;47.656;11.310;2023-02-10T05:56:16;96638.56;;;-0.40;75.97
75051;BME280;63628;47.656;11.310;2023-02-10T05:58:43;96650.63;;;-0.39;75.41
75051;BME280;63628;47.656;11.310;2023-02-10T06:01:10;96655.09;;;-0.41;76.11
75051;BME280;63628;47.656;11.310;2023-02-10T06:03:37;96652.50;;;-0.41;75.92
75051;BME280;63628;47.656;11.310;2023-02-10T06:06:04;96649.25;;;-2.57;76.53
75051;BME280;63628;47.656;11.310;2023-02-10T06:08:31;96650.91;;;-0.88;77.64
75051;BME280;63628;47.656;11.310;2023-02-10T06:10:59;96657.13;;;-3.48;73.78
75051;BME280;63628;47.656;11.310;2023-02-10T06:13:25;96653.25;;;-1.67;79.47
75051;BME280;63628;47.656;11.310;2023-02-10T06:15:52;96664.16;;;-0.69;76.57
75051;BME280;63628;47.656;11.310;2023-02-10T06:18:19;96663.38;;;-0.58;76.39
75051;BME280;63628;47.656;11.310;2023-02-10T06:20:45;96664.09;;;-0.56;75.89
75051;BME280;63628;47.656;11.310;2023-02-10T06:23:12;96665.03;;;-0.57;75.68
75051;BME280;63628;47.656;11.310;2023-02-10T06:25:39;96663.25;;;-0.57;75.85
75051;BME280;63628;47.656;11.310;2023-02-10T06:28:07;96659.84;;;-0.57;75.77
75051;BME280;63628;47.656;11.310;2023-02-10T06:30:34;96665.75;;;-0.55;75.81
75051;BME280;63628;47.656;11.310;2023-02-10T06:33:00;96676.16;;;-1.61;63.15
75051;BME280;63628;47.656;11.310;2023-02-10T06:35:27;96671.25;;;-0.82;76.69
75051;BME280;63628;47.656;11.310;2023-02-10T06:37:54;96674.13;;;-0.63;76.51
75051;BME280;63628;47.656;11.310;2023-02-10T06:40:21;96674.38;;;-1.12;70.34
75051;BME280;63628;47.656;11.310;2023-02-10T06:42:47;96678.75;;;-3.49;66.54
75051;BME280;63628;47.656;11.310;2023-02-10T06:45:15;96681.34;;;-1.02;77.77
75051;BME280;63628;47.656;11.310;2023-02-10T06:47:42;96686.84;;;-0.71;75.93
75051;BME280;63628;47.656;11.310;2023-02-10T06:50:09;96693.28;;;-0.64;75.53
75051;BME280;63628;47.656;11.310;2023-02-10T06:52:35;96689.63;;;-0.97;76.95
75051;BME280;63628;47.656;11.310;2023-02-10T06:55:05;96693.94;;;-0.73;75.98
75051;BME280;63628;47.656;11.310;2023-02-10T06:57:32;96702.22;;;-0.68;75.68
75051;BME280;63628;47.656;11.310;2023-02-10T06:59:58;96702.31;;;-0.70;76.38
75051;BME280;63628;47.656;11.310;2023-02-10T07:02:26;96701.38;;;-0.69;76.23
75051;BME280;63628;47.656;11.310;2023-02-10T07:04:53;96702.09;;;-0.67;75.43
75051;BME280;63628;47.656;11.310;2023-02-10T07:07:20;96711.78;;;-0.69;75.83
75051;BME280;63628;47.656;11.310;2023-02-10T07:09:46;96712.56;;;-2.48;72.15
75051;BME280;63628;47.656;11.310;2023-02-10T07:12:13;96714.44;;;-0.92;76.69
75051;BME280;63628;47.656;11.310;2023-02-10T07:14:39;96720.88;;;-1.33;69.53
75051;BME280;63628;47.656;11.310;2023-02-10T07:17:06;96715.41;;;-0.82;76.49
75051;BME280;63628;47.656;11.310;2023-02-10T07:19:34;96719.31;;;-0.77;75.82
75051;BME280;63628;47.656;11.310;2023-02-10T07:22:01;96718.97;;;-0.72;75.26
75051;BME280;63628;47.656;11.310;2023-02-10T07:24:31;96715.47;;;-1.78;77.67
75051;BME280;63628;47.656;11.310;2023-02-10T07:26:58;96717.16;;;-0.94;77.13
75051;BME280;63628;47.656;11.310;2023-02-10T07:29:25;96724.88;;;-0.81;76.52
75051;BME280;63628;47.656;11.310;2023-02-10T07:31:51;96721.09;;;-0.77;75.97
75051;BME280;63628;47.656;11.310;2023-02-10T07:34:18;96727.00;;;-0.75;76.14
75051;BME280;63628;47.656;11.310;2023-02-10T07:36:48;96729.59;;;-0.75;76.26
75051;BME280;63628;47.656;11.310;2023-02-10T07:39:20;96723.81;;;-0.79;72.68
75051;BME280;63628;47.656;11.310;2023-02-10T07:41:47;96725.91;;;-2.16;74.66
75051;BME280;63628;47.656;11.310;2023-02-10T07:44:13;96727.06;;;-1.47;76.41
75051;BME280;63628;47.656;11.310;2023-02-10T07:46:40;96730.38;;;-0.97;76.81
75051;BME280;63628;47.656;11.310;2023-02-10T07:49:07;96726.75;;;-0.83;76.45
75051;BME280;63628;47.656;11.310;2023-02-10T07:51:33;96733.50;;;-0.81;76.25
75051;BME280;63628;47.656;11.310;2023-02-10T07:54:01;96737.66;;;-0.67;76.04
75051;BME280;63628;47.656;11.310;2023-02-10T07:56:28;96737.09;;;-0.59;75.13
75051;BME280;63628;47.656;11.310;2023-02-10T07:58:55;96738.81;;;-0.71;75.06
75051;BME280;63628;47.656;11.310;2023-02-10T08:01:22;96738.81;;;-0.71;75.78
75051;BME280;63628;47.656;11.310;2023-02-10T08:03:48;96745.63;;;-0.46;74.77
75051;BME280;63628;47.656;11.310;2023-02-10T08:06:18;96747.94;;;-0.66;75.13
75051;BME280;63628;47.656;11.310;2023-02-10T08:08:45;96749.69;;;-0.77;76.35
75051;BME280;63628;47.656;11.310;2023-02-10T08:11:13;96748.75;;;-0.76;76.78
75051;BME280;63628;47.656;11.310;2023-02-10T08:13:41;96734.63;;;1.98;72.67
75051;BME280;63628;47.656;11.310;2023-02-10T08:16:08;96736.78;;;2.93;67.73
75051;BME280;63628;47.656;11.310;2023-02-10T08:18:37;96732.81;;;3.27;64.13
75051;BME280;63628;47.656;11.310;2023-02-10T08:21:04;96741.31;;;3.58;64.03
75051;BME280;63628;47.656;11.310;2023-02-10T08:23:31;96725.97;;;3.82;60.99
75051;BME280;63628;47.656;11.310;2023-02-10T08:25:57;96734.84;;;3.62;62.18
75051;BME280;63628;47.656;11.310;2023-02-10T08:28:25;96735.88;;;3.89;59.97
75051;BME280;63628;47.656;11.310;2023-02-10T08:30:52;96735.63;;;3.72;59.24
75051;BME280;63628;47.656;11.310;2023-02-10T08:33:19;96735.44;;;3.27;60.93
75051;BME280;63628;47.656;11.310;2023-02-10T08:35:45;96737.63;;;3.32;61.98
75051;BME280;63628;47.656;11.310;2023-02-10T08:38:12;96734.59;;;3.46;64.07
75051;BME280;63628;47.656;11.310;2023-02-10T08:40:39;96719.47;;;5.14;57.65
75051;BME280;63628;47.656;11.310;2023-02-10T08:43:06;96727.16;;;2.83;62.51
75051;BME280;63628;47.656;11.310;2023-02-10T08:45:34;96726.84;;;3.64;64.47
75051;BME280;63628;47.656;11.310;2023-02-10T08:48:01;96719.34;;;4.25;58.70
75051;BME280;63628;47.656;11.310;2023-02-10T08:50:28;96712.66;;;5.39;57.05
75051;BME280;63628;47.656;11.310;2023-02-10T08:52:55;96708.63;;;6.64;51.46
75051;BME280;63628;47.656;11.310;2023-02-10T08:55:22;96716.03;;;6.77;53.29
75051;BME280;63628;47.656;11.310;2023-02-10T08:57:48;96724.28;;;6.90;51.27
75051;BME280;63628;47.656;11.310;2023-02-10T09:00:15;96724.38;;;7.55;50.88
75051;BME280;63628;47.656;11.310;2023-02-10T09:02:43;96722.56;;;7.80;48.24
75051;BME280;63628;47.656;11.310;2023-02-10T09:05:10;96722.03;;;7.93;46.87
75051;BME280;63628;47.656;11.310;2023-02-10T09:07:37;96719.81;;;6.75;50.58
75051;BME280;63628;47.656;11.310;2023-02-10T09:10:04;96720.19;;;6.46;54.09
75051;BME280;63628;47.656;11.310;2023-02-10T09:12:30;96724.53;;;7.86;45.64
75051;BME280;63628;47.656;11.310;2023-02-10T09:14:58;96728.41;;;6.43;50.74
75051;BME280;63628;47.656;11.310;2023-02-10T09:17:24;96736.00;;;6.96;48.85
75051;BME280;63628;47.656;11.310;2023-02-10T09:19:52;96744.34;;;6.07;48.34
75051;BME280;63628;47.656;11.310;2023-02-10T09:22:19;96739.56;;;6.79;51.95
75051;BME280;63628;47.656;11.310;2023-02-10T09:24:46;96730.00;;;8.48;47.68
75051;BME280;63628;47.656;11.310;2023-02-10T09:27:15;96734.03;;;8.67;47.69
75051;BME280;63628;47.656;11.310;2023-02-10T09:29:42;96739.56;;;8.49;45.33
75051;BME280;63628;47.656;11.310;2023-02-10T09:32:08;96739.59;;;8.80;44.46
75051;BME280;63628;47.656;11.310;2023-02-10T09:34:35;96747.16;;;8.36;47.57
75051;BME280;63628;47.656;11.310;2023-02-10T09:37:04;96741.09;;;9.97;42.18
75051;BME280;63628;47.656;11.310;2023-02-10T09:39:32;96743.09;;;9.04;43.32
75051;BME280;63628;47.656;11.310;2023-02-10T09:42:04;96750.00;;;9.81;46.52
75051;BME280;63628;47.656;11.310;2023-02-10T09:44:36;96740.09;;;10.13;40.78
75051;BME280;63628;47.656;11.310;2023-02-10T09:47:25;96747.84;;;10.52;44.86
75051;BME280;63628;47.656;11.310;2023-02-10T09:53:02;96745.13;;;7.91;48.11
75051;BME280;63628;47.656;11.310;2023-02-10T09:55:35;96747.28;;;6.04;51.93
75051;BME280;63628;47.656;11.310;2023-02-10T09:58:09;96745.78;;;6.35;53.80
75051;BME280;63628;47.656;11.310;2023-02-10T10:00:40;96737.03;;;6.61;54.77
75051;BME280;63628;47.656;11.310;2023-02-10T10:03:13;96737.94;;;5.22;49.70
75051;BME280;63628;47.656;11.310;2023-02-10T10:05:47;96735.22;;;7.77;49.02
75051;BME280;63628;47.656;11.310;2023-02-10T10:08:23;96740.97;;;5.18;50.45
75051;BME280;63628;47.656;11.310;2023-02-10T10:10:51;96741.16;;;4.16;59.38
75051;BME280;63628;47.656;11.310;2023-02-10T10:13:21;96750.09;;;4.60;56.02
75051;BME280;63628;47.656;11.310;2023-02-10T10:16:00;96743.03;;;5.41;52.62
75051;BME280;63628;47.656;11.310;2023-02-10T10:18:35;96743.84;;;9.20;46.88
75051;BME280;63628;47.656;11.310;2023-02-10T10:21:10;96736.22;;;11.19;41.30
75051;BME280;63628;47.656;11.310;2023-02-10T10:23:52;96738.78;;;6.10;51.08
75051;BME280;63628;47.656;11.310;2023-02-10T10:26:36;96739.03;;;5.37;49.53
75051;BME280;63628;47.656;11.310;2023-02-10T10:29:19;96716.88;;;10.23;44.73
75051;BME280;63628;47.656;11.310;2023-02-10T10:31:50;96717.25;;;8.60;45.12
75051;BME280;63628;47.656;11.310;2023-02-10T10:34:24;96714.38;;;6.68;45.01
75051;BME280;63628;47.656;11.310;2023-02-10T10:36:55;96703.75;;;6.94;47.22
75051;BME280;63628;47.656;11.310;2023-02-10T10:39:29;96690.41;;;10.38;42.75
75051;BME280;63628;47.656;11.310;2023-02-10T10:42:00;96698.25;;;6.63;46.10
75051;BME280;63628;47.656;11.310;2023-02-10T10:44:29;96702.28;;;5.20;53.78
75051;BME280;63628;47.656;11.310;2023-02-10T10:47:02;96685.22;;;11.59;39.17
75051;BME280;63628;47.656;11.310;2023-02-10T10:49:34;96684.28;;;11.88;37.57
75051;BME280;63628;47.656;11.310;2023-02-10T10:52:02;96688.19;;;8.21;49.62
75051;BME280;63628;47.656;11.310;2023-02-10T10:54:37;96677.28;;;12.43;39.81
75051;BME280;63628;47.656;11.310;2023-02-10T10:57:12;96673.84;;;10.80;36.45
75051;BME280;63628;47.656;11.310;2023-02-10T10:59:45;96667.22;;;11.76;39.53
75051;BME280;63628;47.656;11.310;2023-02-10T11:02:17;96661.78;;;11.14;40.62
75051;BME280;63628;47.656;11.310;2023-02-10T11:04:44;96672.16;;;8.31;49.73
75051;BME280;63628;47.656;11.310;2023-02-10T11:07:17;96671.53;;;6.42;51.25
75051;BME280;63628;47.656;11.310;2023-02-10T11:09:51;96671.00;;;6.30;48.90
75051;BME280;63628;47.656;11.310;2023-02-10T11:12:21;96663.50;;;9.67;43.98
75051;BME280;63628;47.656;11.310;2023-02-10T11:14:49;96666.53;;;7.86;43.20
75051;BME280;63628;47.656;11.310;2023-02-10T11:17:23;96659.66;;;10.22;41.11
75051;BME280;63628;47.656;11.310;2023-02-10T11:19:56;96653.69;;;11.43;40.68
75051;BME280;63628;47.656;11.310;2023-02-10T11:22:23;96658.03;;;8.63;44.97
75051;BME280;63628;47.656;11.310;2023-02-10T11:24:52;96661.91;;;7.88;46.80
75051;BME280;63628;47.656;11.310;2023-02-10T11:27:20;96660.75;;;7.91;43.03
75051;BME280;63628;47.656;11.310;2023-02-10T11:29:48;96654.72;;;7.50;45.85
75051;BME280;63628;47.656;11.310;2023-02-10T11:32:18;96654.91;;;6.99;47.88
75051;BME280;63628;47.656;11.310;2023-02-10T11:34:47;96657.66;;;5.37;52.46
75051;BME280;63628;47.656;11.310;2023-02-10T11:37:19;96656.81;;;6.15;49.45
75051;BME280;63628;47.656;11.310;2023-02-10T11:39:47;96647.50;;;4.45;60.25
75051;BME280;63628;47.656;11.310;2023-02-10T11:42:20;96638.44;;;6.23;52.32
75051;BME280;63628;47.656;11.310;2023-02-10T11:44:54;96638.13;;;7.00;46.64
75051;BME280;63628;47.656;11.310;2023-02-10T11:47:21;96636.28;;;6.77;46.67
75051;BME280;63628;47.656;11.310;2023-02-10T11:49:49;96637.09;;;6.69;46.70
75051;BME280;63628;47.656;11.310;2023-02-10T11:52:17;96633.97;;;6.07;48.84
75051;BME280;63628;47.656;11.310;2023-02-10T11:54:45;96641.50;;;4.53;58.95
75051;BME280;63628;47.656;11.310;2023-02-10T11:57:23;96633.00;;;4.87;60.49
75051;BME280;63628;47.656;11.310;2023-02-10T12:00:16;96628.78;;;4.94;56.96
75051;BME280;63628;47.656;11.310;2023-02-10T12:03:15;96620.25;;;4.74;52.24
75051;BME280;63628;47.656;11.310;2023-02-10T12:05:51;96621.78;;;5.20;50.57
75051;BME280;63628;47.656;11.310;2023-02-10T12:08:26;96622.25;;;4.98;51.69
75051;BME280;63628;47.656;11.310;2023-02-10T12:10:59;96622.59;;;4.77;55.28
75051;BME280;63628;47.656;11.310;2023-02-10T12:13:40;96616.25;;;4.17;52.42
75051;BME280;63628;47.656;11.310;2023-02-10T12:16:17;96606.03;;;4.59;52.29
75051;BME280;63628;47.656;11.310;2023-02-10T12:18:56;96610.41;;;3.68;63.93
75051;BME280;63628;47.656;11.310;2023-02-10T12:21:39;96615.09;;;3.64;59.70
75051;BME280;63628;47.656;11.310;2023-02-10T12:24:18;96609.00;;;4.46;52.69
75051;BME280;63628;47.656;11.310;2023-02-10T12:26:52;96603.69;;;4.38;52.46
75051;BME280;63628;47.656;11.310;2023-02-10T12:29:31;96597.16;;;4.24;52.58
75051;BME280;63628;47.656;11.310;2023-02-10T12:32:06;96601.13;;;4.28;55.84
75051;BME280;63628;47.656;11.310;2023-02-10T12:34:51;96600.50;;;3.89;58.02
75051;BME280;63628;47.656;11.310;2023-02-10T12:37:30;96587.28;;;4.54;55.52
75051;BME280;63628;47.656;11.310;2023-02-10T12:40:39;96593.22;;;4.56;55.16
75051;BME280;63628;47.656;11.310;2023-02-10T12:43:19;96582.88;;;4.36;52.96
75051;BME280;63628;47.656;11.310;2023-02-10T12:45:54;96581.00;;;4.64;53.54
75051;BME280;63628;47.656;11.310;2023-02-10T12:48:28;96587.53;;;4.60;51.62
75051;BME280;63628;47.656;11.310;2023-02-10T12:51:17;96586.75;;;4.50;52.38
75051;BME280;63628;47.656;11.310;2023-02-10T12:53:53;96583.38;;;4.04;57.23
75051;BME280;63628;47.656;11.310;2023-02-10T12:56:24;96586.44;;;4.18;51.57
75051;BME280;63628;47.656;11.310;2023-02-10T12:58:54;96582.78;;;4.10;55.31
75051;BME280;63628;47.656;11.310;2023-02-10T13:01:26;96588.97;;;3.82;51.79
75051;BME280;63628;47.656;11.310;2023-02-10T13:03:57;96591.97;;;3.87;52.21
75051;BME280;63628;47.656;11.310;2023-02-10T13:06:29;96586.75;;;3.87;56.23
75051;BME280;63628;47.656;11.310;2023-02-10T13:09:01;96575.22;;;3.80;61.40
75051;BME280;63628;47.656;11.310;2023-02-10T13:11:34;96571.03;;;4.14;53.14